createdAt,value
2018-05-31T00:01:50.864Z,6.87
2018-05-31T00:04:20.211Z,6.07
2018-05-31T00:06:49.439Z,6.97
2018-05-31T00:09:18.052Z,7.00
2018-05-31T00:11:46.520Z,6.87
2018-05-31T00:14:15.878Z,8.50
2018-05-31T00:16:45.094Z,9.07
2018-05-31T00:19:13.756Z,6.97
2018-05-31T00:21:43.180Z,7.40
2018-05-31T00:24:11.816Z,7.33
2018-05-31T00:26:40.249Z,8.97
2018-05-31T00:29:08.713Z,6.73
2018-05-31T00:31:38.604Z,9.20
2018-05-31T00:34:07.226Z,8.67
2018-05-31T00:36:35.707Z,5.60
2018-05-31T00:39:03.299Z,10.40
2018-05-31T00:41:31.761Z,6.73
2018-05-31T00:44:01.284Z,7.17
2018-05-31T00:46:30.096Z,9.53
2018-05-31T00:48:59.378Z,9.50
2018-05-31T00:51:28.601Z,10.00
2018-05-31T00:53:59.032Z,6.23
2018-05-31T00:56:27.878Z,10.23
2018-05-31T00:58:56.347Z,10.23
2018-05-31T01:01:24.794Z,7.40
2018-05-31T01:03:54.191Z,7.57
2018-05-31T01:06:22.830Z,10.17
2018-05-31T01:08:51.305Z,6.90
2018-05-31T01:11:19.739Z,5.70
2018-05-31T01:13:49.132Z,7.23
2018-05-31T01:16:17.560Z,5.70
2018-05-31T01:18:46.007Z,7.37
2018-05-31T01:21:14.456Z,6.57
2018-05-31T01:23:43.822Z,8.03
2018-05-31T01:26:12.273Z,7.03
2018-05-31T01:28:40.709Z,7.43
2018-05-31T01:31:09.147Z,6.17
2018-05-31T01:33:37.584Z,7.17
2018-05-31T01:36:06.972Z,7.10
2018-05-31T01:38:36.397Z,6.40
2018-05-31T01:41:04.700Z,9.03
2018-05-31T01:43:33.172Z,9.50
2018-05-31T01:46:01.653Z,6.83
2018-05-31T01:48:30.103Z,8.10
2018-05-31T01:50:58.632Z,10.97
2018-05-31T01:53:27.109Z,7.87
2018-05-31T01:55:55.747Z,7.23
2018-05-31T01:58:25.004Z,6.00
2018-05-31T02:00:54.222Z,6.80
2018-05-31T02:03:22.684Z,8.97
2018-05-31T02:05:54.034Z,9.23
2018-05-31T02:08:23.299Z,6.17
2018-05-31T02:10:52.662Z,8.60
2018-05-31T02:13:21.101Z,7.20
2018-05-31T02:15:50.308Z,7.13
2018-05-31T02:18:18.780Z,7.50
2018-05-31T02:20:48.012Z,6.87
2018-05-31T02:23:16.482Z,8.27
2018-05-31T02:25:44.949Z,7.57
2018-05-31T02:28:13.587Z,7.10
2018-05-31T02:30:42.256Z,6.93
2018-05-31T02:33:10.899Z,7.20
2018-05-31T02:35:40.111Z,10.23
2018-05-31T02:38:09.503Z,7.97
2018-05-31T02:40:37.954Z,9.50
2018-05-31T02:43:06.412Z,8.13
2018-05-31T02:45:35.035Z,8.70
2018-05-31T02:48:03.677Z,9.17
2018-05-31T02:50:32.325Z,8.47
2018-05-31T02:53:01.727Z,7.67
2018-05-31T02:55:30.213Z,7.50
2018-05-31T02:57:59.548Z,7.23
2018-05-31T03:00:27.995Z,10.10
2018-05-31T03:02:56.483Z,11.13
2018-05-31T03:05:25.120Z,8.80
2018-05-31T03:07:54.335Z,8.43
2018-05-31T03:10:22.799Z,7.87
2018-05-31T03:12:52.004Z,7.57
2018-05-31T03:15:21.384Z,6.03
2018-05-31T03:17:50.021Z,7.53
2018-05-31T03:20:18.461Z,8.53
2018-05-31T03:22:47.096Z,6.33
2018-05-31T03:25:15.562Z,8.70
2018-05-31T03:27:44.005Z,7.73
2018-05-31T03:30:12.636Z,9.13
2018-05-31T03:32:41.102Z,6.93
2018-05-31T03:35:09.536Z,6.83
2018-05-31T03:37:38.762Z,6.07
2018-05-31T03:40:08.145Z,9.07
2018-05-31T03:42:37.682Z,8.30
2018-05-31T03:45:06.324Z,7.87
2018-05-31T03:47:34.957Z,6.17
2018-05-31T03:50:03.424Z,7.30
2018-05-31T03:52:31.860Z,8.53
2018-05-31T03:55:00.488Z,9.33
2018-05-31T03:57:29.797Z,10.27
2018-05-31T03:59:58.235Z,10.80
2018-05-31T04:02:26.701Z,6.33
2018-05-31T04:04:55.905Z,6.17
2018-05-31T04:07:24.501Z,7.07
2018-05-31T04:09:52.952Z,6.03
2018-05-31T04:12:22.196Z,5.73
2018-05-31T04:14:50.640Z,7.43
2018-05-31T04:17:19.304Z,9.67
2018-05-31T04:19:47.765Z,10.50
2018-05-31T04:22:16.240Z,6.73
2018-05-31T04:24:44.671Z,8.97
2018-05-31T04:27:13.146Z,7.07
2018-05-31T04:29:42.547Z,7.40
2018-05-31T04:32:11.009Z,9.87
2018-05-31T04:34:40.227Z,6.80
2018-05-31T04:37:09.640Z,8.67
2018-05-31T04:39:38.096Z,8.33
2018-05-31T04:42:07.321Z,7.53
2018-05-31T04:44:35.767Z,6.67
2018-05-31T04:47:04.306Z,7.53
2018-05-31T04:49:32.760Z,6.87
2018-05-31T04:52:01.196Z,5.80
2018-05-31T04:54:30.528Z,6.03
2018-05-31T04:56:58.982Z,6.47
2018-05-31T04:59:27.600Z,7.27
2018-05-31T05:01:56.088Z,4.63
2018-05-31T05:04:24.526Z,6.33
2018-05-31T05:06:53.740Z,8.43
2018-05-31T05:09:22.221Z,7.97
2018-05-31T05:11:50.656Z,6.07
2018-05-31T05:14:19.127Z,6.40
2018-05-31T05:16:47.601Z,9.30
2018-05-31T05:19:16.038Z,6.60
2018-05-31T05:21:45.426Z,8.93
2018-05-31T05:24:14.633Z,6.47
2018-05-31T05:26:44.043Z,6.53
2018-05-31T05:29:12.507Z,7.63
2018-05-31T05:31:41.912Z,7.27
2018-05-31T05:34:10.359Z,6.80
2018-05-31T05:36:38.832Z,6.20
2018-05-31T05:39:07.269Z,7.97
2018-05-31T05:41:35.717Z,5.27
2018-05-31T05:44:03.661Z,6.73
2018-05-31T05:46:32.883Z,5.97
2018-05-31T05:49:02.891Z,8.60
2018-05-31T05:51:31.950Z,6.53
2018-05-31T05:54:01.981Z,5.87
2018-05-31T05:56:30.815Z,7.43
2018-05-31T05:59:00.888Z,7.63
2018-05-31T06:01:29.619Z,6.87
2018-05-31T06:03:59.076Z,5.40
2018-05-31T06:06:27.695Z,5.37
2018-05-31T06:08:56.789Z,7.60
2018-05-31T06:11:25.733Z,9.43
2018-05-31T06:13:54.232Z,9.23
2018-05-31T06:16:23.440Z,7.70
2018-05-31T06:18:52.652Z,7.47
2018-05-31T06:21:22.054Z,6.30
2018-05-31T06:23:52.432Z,10.87
2018-05-31T06:26:20.913Z,7.50
2018-05-31T06:28:49.509Z,9.60
2018-05-31T06:31:18.756Z,6.70
2018-05-31T06:33:48.403Z,7.40
2018-05-31T06:36:16.853Z,7.77
2018-05-31T06:38:45.304Z,6.97
2018-05-31T06:41:13.727Z,10.00
2018-05-31T06:43:43.133Z,5.97
2018-05-31T06:46:11.561Z,7.77
2018-05-31T06:48:40.022Z,8.50
2018-05-31T06:51:09.225Z,7.37
2018-05-31T06:53:38.473Z,7.80
2018-05-31T06:56:06.921Z,8.07
2018-05-31T06:58:35.370Z,6.90
2018-05-31T07:01:04.589Z,8.60
2018-05-31T07:03:33.059Z,8.73
2018-05-31T07:06:03.228Z,7.67
2018-05-31T07:08:32.459Z,7.97
2018-05-31T07:11:02.126Z,9.23
2018-05-31T07:13:31.118Z,10.57
2018-05-31T07:15:59.599Z,7.67
2018-05-31T07:18:28.198Z,6.73
2018-05-31T07:20:56.680Z,11.67
2018-05-31T07:23:25.100Z,7.63
2018-05-31T07:25:53.521Z,6.97
2018-05-31T07:28:21.964Z,8.60
2018-05-31T07:30:50.404Z,10.53
2018-05-31T07:33:18.884Z,8.40
2018-05-31T07:35:47.325Z,8.37
2018-05-31T07:38:15.767Z,6.77
2018-05-31T07:40:44.964Z,7.37
2018-05-31T07:43:14.210Z,10.63
2018-05-31T07:45:42.651Z,9.60
2018-05-31T07:48:11.094Z,9.77
2018-05-31T07:50:39.530Z,7.33
2018-05-31T07:53:07.987Z,7.77
2018-05-31T07:55:36.120Z,9.30
2018-05-31T07:58:04.700Z,9.70
2018-05-31T08:00:33.538Z,10.17
2018-05-31T08:03:02.052Z,9.20
2018-05-31T08:05:30.570Z,8.63
2018-05-31T08:07:59.788Z,9.47
2018-05-31T08:10:28.217Z,11.63
2018-05-31T08:12:56.657Z,8.93
2018-05-31T08:15:25.096Z,9.43
2018-05-31T08:17:54.300Z,7.67
2018-05-31T08:20:23.526Z,11.23
2018-05-31T08:22:52.634Z,10.20
2018-05-31T08:25:21.061Z,8.47
2018-05-31T08:27:50.305Z,9.37
2018-05-31T08:30:18.724Z,8.00
2018-05-31T08:32:47.173Z,9.50
2018-05-31T08:35:15.612Z,8.57
2018-05-31T08:37:44.067Z,8.90
2018-05-31T08:40:12.497Z,12.70
2018-05-31T08:42:40.582Z,10.50
2018-05-31T08:45:09.035Z,8.37
2018-05-31T08:47:37.467Z,8.13
2018-05-31T08:50:05.917Z,10.17
2018-05-31T08:52:34.367Z,13.70
2018-05-31T08:55:03.417Z,9.37
2018-05-31T08:57:31.868Z,8.80
2018-05-31T09:00:00.296Z,9.37
2018-05-31T09:02:29.542Z,9.93
2018-05-31T09:04:57.999Z,10.50
2018-05-31T09:07:26.502Z,11.60
2018-05-31T09:09:54.950Z,10.10
2018-05-31T09:12:23.416Z,12.23
2018-05-31T09:14:52.608Z,13.50
2018-05-31T09:17:21.805Z,9.17
2018-05-31T09:19:51.012Z,10.70
2018-05-31T09:22:19.471Z,11.33
2018-05-31T09:24:48.683Z,10.97
2018-05-31T09:27:17.117Z,13.53
2018-05-31T09:29:45.564Z,11.97
2018-05-31T09:32:14.001Z,10.13
2018-05-31T09:34:43.236Z,14.70
2018-05-31T09:37:11.662Z,12.57
2018-05-31T09:39:40.089Z,12.20
2018-05-31T09:42:08.560Z,12.43
2018-05-31T09:44:37.000Z,13.37
2018-05-31T09:47:05.427Z,10.80
2018-05-31T09:49:34.878Z,14.93
2018-05-31T09:52:03.330Z,14.80
2018-05-31T09:54:32.523Z,11.47
2018-05-31T09:57:01.324Z,11.53
2018-05-31T09:59:29.771Z,12.70
2018-05-31T10:01:58.191Z,12.73
2018-05-31T10:04:26.731Z,13.07
2018-05-31T10:06:55.164Z,11.57
2018-05-31T10:09:23.628Z,13.77
2018-05-31T10:11:52.093Z,10.30
2018-05-31T10:14:20.576Z,11.03
2018-05-31T10:16:49.023Z,12.83
2018-05-31T10:19:17.453Z,13.90
2018-05-31T10:21:45.902Z,10.73
2018-05-31T10:24:14.357Z,12.10
2018-05-31T10:26:42.825Z,11.40
2018-05-31T10:29:11.278Z,9.87
2018-05-31T10:31:40.525Z,11.53
2018-05-31T10:34:08.953Z,13.00
2018-05-31T10:36:38.162Z,13.10
2018-05-31T10:39:07.362Z,10.90
2018-05-31T10:41:36.546Z,11.33
2018-05-31T10:44:05.752Z,13.10
2018-05-31T10:46:34.704Z,11.17
2018-05-31T10:49:04.170Z,13.73
2018-05-31T10:51:32.609Z,10.37
2018-05-31T10:54:01.876Z,9.70
2018-05-31T10:56:30.305Z,11.53
2018-05-31T10:58:58.749Z,11.00
2018-05-31T11:01:27.195Z,10.97
2018-05-31T11:03:55.659Z,12.37
2018-05-31T11:06:24.106Z,12.93
2018-05-31T11:08:53.301Z,10.80
2018-05-31T11:11:22.538Z,11.10
2018-05-31T11:13:50.981Z,9.67
2018-05-31T11:16:20.200Z,12.13
2018-05-31T11:18:48.647Z,13.63
2018-05-31T11:21:17.844Z,12.03
2018-05-31T11:23:46.717Z,10.77
2018-05-31T11:26:15.131Z,12.13
2018-05-31T11:28:43.605Z,10.33
2018-05-31T11:31:12.807Z,13.47
2018-05-31T11:33:41.237Z,10.87
2018-05-31T11:36:09.672Z,12.90
2018-05-31T11:38:38.101Z,11.33
2018-05-31T11:41:06.545Z,11.37
2018-05-31T11:43:34.986Z,12.20
2018-05-31T11:46:04.194Z,14.43
2018-05-31T11:48:33.592Z,11.60
2018-05-31T11:51:03.403Z,12.53
2018-05-31T11:53:32.621Z,11.77
2018-05-31T11:56:01.079Z,12.47
2018-05-31T11:58:30.259Z,10.07
2018-05-31T12:00:59.475Z,10.07
2018-05-31T12:03:28.669Z,11.07
2018-05-31T12:05:57.886Z,10.50
2018-05-31T12:08:26.357Z,10.13
2018-05-31T12:10:55.065Z,12.33
2018-05-31T12:13:23.645Z,12.90
2018-05-31T12:15:52.112Z,12.23
2018-05-31T12:18:20.555Z,12.90
2018-05-31T12:20:49.797Z,12.13
2018-05-31T12:23:18.255Z,11.23
2018-05-31T12:25:46.736Z,14.50
2018-05-31T12:28:15.193Z,12.93
2018-05-31T12:30:44.416Z,14.30
2018-05-31T12:33:12.846Z,12.10
2018-05-31T12:35:41.316Z,11.90
2018-05-31T12:38:09.768Z,10.77
2018-05-31T12:40:38.213Z,11.73
2018-05-31T12:43:06.424Z,11.50
2018-05-31T12:45:34.897Z,11.43
2018-05-31T12:48:03.989Z,12.37
2018-05-31T12:50:33.151Z,12.37
2018-05-31T12:53:02.925Z,11.57
2018-05-31T12:55:31.381Z,11.50
2018-05-31T12:57:59.878Z,10.43
2018-05-31T13:00:28.331Z,9.93
2018-05-31T13:02:56.442Z,9.20
2018-05-31T13:05:24.895Z,11.93
2018-05-31T13:07:53.381Z,11.33
2018-05-31T13:10:21.802Z,11.60
2018-05-31T13:12:50.698Z,12.97
2018-05-31T13:15:19.926Z,10.73
2018-05-31T13:17:48.373Z,12.57
2018-05-31T13:20:17.245Z,9.57
2018-05-31T13:22:46.445Z,13.10
2018-05-31T13:25:15.685Z,12.20
2018-05-31T13:27:45.093Z,10.40
2018-05-31T13:30:13.549Z,13.27
2018-05-31T13:32:42.052Z,15.13
2018-05-31T13:35:10.484Z,12.83
2018-05-31T13:37:39.704Z,13.90
2018-05-31T13:40:08.144Z,12.33
2018-05-31T13:42:36.665Z,11.30
2018-05-31T13:45:05.065Z,13.30
2018-05-31T13:47:34.147Z,12.03
2018-05-31T13:50:03.286Z,12.40
2018-05-31T13:52:31.714Z,12.80
2018-05-31T13:55:00.218Z,8.20
2018-05-31T13:57:28.645Z,11.10
2018-05-31T13:59:57.868Z,8.77
2018-05-31T14:02:26.296Z,10.67
2018-05-31T14:04:54.876Z,12.57
2018-05-31T14:07:23.344Z,7.77
2018-05-31T14:09:51.777Z,10.47
2018-05-31T14:12:20.967Z,10.40
2018-05-31T14:14:50.238Z,13.33
2018-05-31T14:17:18.706Z,10.00
2018-05-31T14:19:47.128Z,9.67
2018-05-31T14:22:15.595Z,8.73
2018-05-31T14:24:44.857Z,7.67
2018-05-31T14:27:13.303Z,10.03
2018-05-31T14:29:41.740Z,9.97
2018-05-31T14:32:10.964Z,11.67
2018-05-31T14:34:39.438Z,7.83
2018-05-31T14:37:07.883Z,10.43
2018-05-31T14:39:36.009Z,11.20
2018-05-31T14:42:05.433Z,7.97
2018-05-31T14:44:34.750Z,8.53
2018-05-31T14:47:03.965Z,8.10
2018-05-31T14:49:33.599Z,11.00
2018-05-31T14:52:02.053Z,11.77
2018-05-31T14:54:31.311Z,9.60
2018-05-31T14:56:59.748Z,8.40
2018-05-31T14:59:28.166Z,8.37
2018-05-31T15:01:56.635Z,8.77
2018-05-31T15:04:25.082Z,10.00
2018-05-31T15:06:53.549Z,9.90
2018-05-31T15:09:22.759Z,10.97
2018-05-31T15:11:51.188Z,8.57
2018-05-31T15:14:19.614Z,9.87
2018-05-31T15:16:48.104Z,9.47
2018-05-31T15:19:16.683Z,8.43
2018-05-31T15:21:45.114Z,10.43
2018-05-31T15:24:13.573Z,9.83
2018-05-31T15:26:41.992Z,8.17
2018-05-31T15:29:11.208Z,9.77
2018-05-31T15:31:39.661Z,10.37
2018-05-31T15:34:08.866Z,9.73
2018-05-31T15:36:38.127Z,10.00
2018-05-31T15:39:05.904Z,12.57
2018-05-31T15:41:35.079Z,9.03
2018-05-31T15:44:03.531Z,8.07
2018-05-31T15:46:31.955Z,10.20
2018-05-31T15:49:00.395Z,8.67
2018-05-31T15:51:28.856Z,12.17
2018-05-31T15:53:57.310Z,12.90
2018-05-31T15:56:26.504Z,10.07
2018-05-31T15:58:55.732Z,8.73
2018-05-31T16:01:24.201Z,9.63
2018-05-31T16:03:52.626Z,9.27
2018-05-31T16:06:21.085Z,12.30
2018-05-31T16:08:49.553Z,10.57
2018-05-31T16:11:18.025Z,13.77
2018-05-31T16:13:46.516Z,9.83
2018-05-31T16:16:15.096Z,12.27
2018-05-31T16:18:43.566Z,8.23
2018-05-31T16:21:11.989Z,9.03
2018-05-31T16:23:40.454Z,9.63
2018-05-31T16:26:08.877Z,10.17
2018-05-31T16:28:38.107Z,9.80
2018-05-31T16:31:06.530Z,12.47
2018-05-31T16:33:35.767Z,10.13
2018-05-31T16:36:04.203Z,9.83
2018-05-31T16:38:32.639Z,8.00
2018-05-31T16:41:01.100Z,8.13
2018-05-31T16:43:29.566Z,8.40
2018-05-31T16:45:58.185Z,11.57
2018-05-31T16:48:26.642Z,11.70
2018-05-31T16:50:55.082Z,10.87
2018-05-31T16:53:23.521Z,9.27
2018-05-31T16:55:51.971Z,10.57
2018-05-31T16:58:21.190Z,10.60
2018-05-31T17:00:49.620Z,9.07
2018-05-31T17:03:18.048Z,10.10
2018-05-31T17:05:46.476Z,10.03
2018-05-31T17:08:14.919Z,12.03
2018-05-31T17:10:43.342Z,10.93
2018-05-31T17:13:12.543Z,9.50
2018-05-31T17:15:41.722Z,11.40
2018-05-31T17:18:10.177Z,10.97
2018-05-31T17:20:38.292Z,12.23
2018-05-31T17:23:07.509Z,11.30
2018-05-31T17:25:36.072Z,7.90
2018-05-31T17:28:06.119Z,11.87
2018-05-31T17:30:34.698Z,10.07
2018-05-31T17:33:03.202Z,9.17
2018-05-31T17:35:31.637Z,9.37
2018-05-31T17:38:00.859Z,10.33
2018-05-31T17:40:29.300Z,9.63
2018-05-31T17:42:58.523Z,8.93
2018-05-31T17:45:27.146Z,11.63
2018-05-31T17:47:55.564Z,8.67
2018-05-31T17:50:24.786Z,11.03
2018-05-31T17:52:53.227Z,6.90
2018-05-31T17:55:22.491Z,12.97
2018-05-31T17:57:51.812Z,8.90
2018-05-31T18:00:20.256Z,8.10
2018-05-31T18:02:48.691Z,7.90
2018-05-31T18:05:17.913Z,9.80
2018-05-31T18:07:46.358Z,6.57
2018-05-31T18:10:15.595Z,10.40
2018-05-31T18:12:44.102Z,9.30
2018-05-31T18:15:12.524Z,8.27
2018-05-31T18:17:41.712Z,11.73
2018-05-31T18:20:11.031Z,8.73
2018-05-31T18:22:39.472Z,9.77
2018-05-31T18:25:07.887Z,10.80
2018-05-31T18:27:36.500Z,9.57
2018-05-31T18:30:04.382Z,8.27
2018-05-31T18:32:32.842Z,9.00
2018-05-31T18:35:01.296Z,8.80
2018-05-31T18:37:29.728Z,11.10
2018-05-31T18:39:58.170Z,9.40
2018-05-31T18:42:26.592Z,7.20
2018-05-31T18:44:55.055Z,7.57
2018-05-31T18:47:23.520Z,11.47
2018-05-31T18:49:52.154Z,8.67
2018-05-31T18:52:21.340Z,11.93
2018-05-31T18:54:50.566Z,10.97
2018-05-31T18:57:19.012Z,13.23
2018-05-31T18:59:47.445Z,10.30
2018-05-31T19:02:15.881Z,7.43
2018-05-31T19:04:45.101Z,11.13
2018-05-31T19:07:13.533Z,10.43
2018-05-31T19:09:41.967Z,13.33
2018-05-31T19:12:10.191Z,8.00
2018-05-31T19:14:38.641Z,8.73
2018-05-31T19:17:07.124Z,7.57
2018-05-31T19:19:41.916Z,12.00
2018-05-31T19:22:10.368Z,10.37
2018-05-31T19:24:44.891Z,9.87
2018-05-31T19:27:14.092Z,10.23
2018-05-31T19:29:43.286Z,11.87
2018-05-31T19:32:12.525Z,9.40
2018-05-31T19:34:41.870Z,10.00
2018-05-31T19:37:13.012Z,13.43
2018-05-31T19:39:42.271Z,9.20
2018-05-31T19:42:16.273Z,13.57
2018-05-31T19:44:44.608Z,10.53
2018-05-31T19:47:13.805Z,8.73
2018-05-31T19:49:43.043Z,12.43
2018-05-31T19:52:16.792Z,9.57
2018-05-31T19:54:45.300Z,13.33
2018-05-31T19:57:13.457Z,10.30
2018-05-31T19:59:47.618Z,12.13
2018-05-31T20:02:21.363Z,11.40
2018-05-31T20:04:49.877Z,12.90
2018-05-31T20:07:18.367Z,10.13
2018-05-31T20:09:46.817Z,12.07
2018-05-31T20:12:16.043Z,10.87
2018-05-31T20:14:44.473Z,9.90
2018-05-31T20:17:12.960Z,12.07
2018-05-31T20:19:42.184Z,14.20
2018-05-31T20:22:10.634Z,11.57
2018-05-31T20:24:39.888Z,13.43
2018-05-31T20:27:08.489Z,10.60
2018-05-31T20:29:36.925Z,14.13
2018-05-31T20:32:06.097Z,12.83
2018-05-31T20:34:35.296Z,12.03
2018-05-31T20:37:04.920Z,11.50
2018-05-31T20:39:33.366Z,8.43
2018-05-31T20:42:01.826Z,11.77
2018-05-31T20:44:30.263Z,9.13
2018-05-31T20:46:58.398Z,15.37
2018-05-31T20:49:27.663Z,8.50
2018-05-31T20:51:56.121Z,7.13
2018-05-31T20:54:24.576Z,6.53
2018-05-31T20:56:53.009Z,8.27
2018-05-31T20:59:21.455Z,6.10
2018-05-31T21:01:49.876Z,7.47
2018-05-31T21:04:18.365Z,6.77
2018-05-31T21:06:46.785Z,8.30
2018-05-31T21:09:15.238Z,7.07
2018-05-31T21:11:44.450Z,8.20
2018-05-31T21:14:12.947Z,7.67
2018-05-31T21:16:41.415Z,5.70
2018-05-31T21:19:09.837Z,5.50
2018-05-31T21:21:38.295Z,6.17
2018-05-31T21:24:06.744Z,5.47
2018-05-31T21:26:36.180Z,8.37
2018-05-31T21:29:04.432Z,7.83
2018-05-31T21:31:32.916Z,6.77
2018-05-31T21:34:01.344Z,7.87
2018-05-31T21:36:29.790Z,4.87
2018-05-31T21:38:58.255Z,5.60
2018-05-31T21:41:26.704Z,7.20
2018-05-31T21:43:55.914Z,6.47
2018-05-31T21:46:24.329Z,5.20
2018-05-31T21:48:52.783Z,6.17
2018-05-31T21:51:21.213Z,7.73
2018-05-31T21:53:49.701Z,7.60
2018-05-31T21:56:18.904Z,4.90
2018-05-31T21:58:48.111Z,5.07
2018-05-31T22:01:17.313Z,6.67
2018-05-31T22:03:45.802Z,3.97
2018-05-31T22:06:14.238Z,4.20
2018-05-31T22:08:42.667Z,6.30
2018-05-31T22:11:11.128Z,3.20
2018-05-31T22:13:39.561Z,2.53
2018-05-31T22:16:07.676Z,3.37
2018-05-31T22:18:36.817Z,2.50
2018-05-31T22:21:06.047Z,2.90
2018-05-31T22:23:35.781Z,4.73
2018-05-31T22:26:04.216Z,1.67
2018-05-31T22:28:33.393Z,1.30
2018-05-31T22:31:01.861Z,1.97
2018-05-31T22:33:30.308Z,1.20
2018-05-31T22:35:58.727Z,1.50
2018-05-31T22:38:27.174Z,1.63
2018-05-31T22:40:55.608Z,0.90
2018-05-31T22:43:24.053Z,1.33
2018-05-31T22:45:52.552Z,1.30
2018-05-31T22:48:21.896Z,1.37
2018-05-31T22:50:51.104Z,2.80
2018-05-31T22:53:19.545Z,4.13
2018-05-31T22:55:47.985Z,2.80
2018-05-31T22:58:17.114Z,4.07
2018-05-31T23:00:46.221Z,1.57
2018-05-31T23:03:15.792Z,1.90
2018-05-31T23:05:44.250Z,1.57
2018-05-31T23:08:12.691Z,3.37
2018-05-31T23:10:41.931Z,1.30
2018-05-31T23:13:10.373Z,2.23
2018-05-31T23:15:39.557Z,1.63
2018-05-31T23:18:07.992Z,2.07
2018-05-31T23:20:36.432Z,2.43
2018-05-31T23:23:04.883Z,3.70
2018-05-31T23:25:33.345Z,4.53
2018-05-31T23:28:01.841Z,4.37
2018-05-31T23:30:30.278Z,4.27
2018-05-31T23:32:58.740Z,4.50
2018-05-31T23:35:27.735Z,6.70
2018-05-31T23:37:56.188Z,6.40
2018-05-31T23:40:25.385Z,6.80
2018-05-31T23:42:54.581Z,4.17
2018-05-31T23:45:23.786Z,4.27
2018-05-31T23:47:53.001Z,4.27
2018-05-31T23:50:21.438Z,5.07
2018-05-31T23:52:49.895Z,5.23
2018-05-31T23:55:18.339Z,6.93
2018-05-31T23:57:46.785Z,4.80
